AIRPORT ID: U76

DATE: 2023-04-02 ZULU TIME: 4.55 LOCAL TIME: 22.55


METAR KU76 020455Z AUTO 00000KT 10SM 01/01 A2995

ALTIMETER: A2995 Q1014

DENSITY ALT: 2200 Ft

WIND DIRECT: 60

WIND SPEED: 1 Gust

WIND CONDITIONS:

VISIBILTY: 10SM 9999M

TEMPERATURE: 33 F 1 C

DEW POINT: 33 F 1 C

HUMID: 100%

LCL: Under 500 feet

RADIO CHECK: 0

ADVISARIES: 1

GREETINGS: 0

CONVERSATIONS: 3